VCBI/CMB METAR and TAF weather

Enter ICAO airport designator
Station Type Date Time Source
VCBI METAR 2021/09/16 11:10 UTC NOAA

VCBI 161110Z 22006KT 9999 SCT016 28/24 Q1006 NOSIG


Station Type Date Time Source
VCBI Decoded METAR 2021/09/16 11:10 UTC NOAA

Katunayake, Sri Lanka (VCBI) 07-10N 079-53E 8M
Sep 16, 2021 - 07:10 AM EDT / 2021.09.16 1110 UTC
Wind: from the SW (220 degrees) at 7 MPH (6 KT):0
Visibility: greater than 7 mile(s):0
Sky conditions: partly cloudy
Temperature: 82 F (28 C)
Dew Point: 75 F (24 C)
Relative Humidity: 78%
Pressure (altimeter): 29.71 in. Hg (1006 hPa)
ob: VCBI 161110Z 22006KT 9999 SCT016 28/24 Q1006 NOSIG
cycle: 11

Station Type Date Time Source
VCBI TAF 2021/09/16 12:06 UTC NOAA

TAF TAF VCBI 161100Z 1612/1718 25010KT 9999 SCT017 TX30/1708Z TN26/1700Z PROB30
TEMPO 1612/1616 1623/1706 7000 -TSRA/SHRA BKN016 FEW020CB
BECMG 1614/1616 20008KT

Example: see airport list